Time;durP1;ratioP1;P1;durP2;ratioP2;P2;SDS_P1;SDS_P2;PMS_P1;PMS_P2;Temp;Humidity;BMP_temperature;BMP_pressure;BME280_temperature;BME280_humidity;BME280_pressure;Samples;Min_cycle;Max_cycle;Signal;HPM_P1;HPM_P2
2023/05/31 00:00:06;;;;;;;;;;;;;;;23.25;58.06;98604.13;2086250;28;19949;-47
2023/05/31 00:01:07;;;;;;;;;;;;;;;23.25;57.90;98603.31;2086220;28;19936;-46
2023/05/31 00:02:08;;;;;;;;;;;;;;;23.25;58.07;98601.41;2087087;28;20043;-47
2023/05/31 00:03:11;;;;;;;;;;;;;;;23.23;57.99;98603.53;2087638;28;19929;-47
2023/05/31 00:04:11;;;;;;;;;;;;;;;23.25;58.02;98598.72;2081388;28;19950;-47
2023/05/31 00:05:12;;;;;;;;;;;;;;;23.24;58.06;98602.50;2086017;28;19958;-48
2023/05/31 00:06:13;;;;;;;;;;;;;;;23.24;57.97;98602.50;2086051;28;19933;-50
2023/05/31 00:07:14;;;;;;;;;;;;;;;23.24;57.93;98602.50;2088248;28;19925;-46
2023/05/31 00:08:15;;;;;;;;;;;;;;;23.24;58.00;98602.50;2087190;28;20622;-46
2023/05/31 00:09:16;;;;;;;;;;;;;;;23.25;57.83;98600.59;2088483;28;20023;-47
2023/05/31 00:10:17;;;;;;;;;;;;;;;23.22;57.99;98599.19;2086657;28;19924;-48
2023/05/31 00:11:19;;;;;;;;;;;;;;;23.23;57.99;98598.13;2087016;28;19920;-45
2023/05/31 00:12:19;;;;;;;;;;;;;;;23.24;57.98;98596.25;2087814;28;19978;-46
2023/05/31 00:13:21;;;;;;;;;;;;;;;23.24;57.90;98596.25;2086032;28;19921;-47
2023/05/31 00:14:21;;;;;;;;;;;;;;;23.24;57.98;98596.25;2091158;28;20238;-46
2023/05/31 00:15:23;;;;;;;;;;;;;;;23.23;57.89;98600.81;2088402;28;19931;-46
2023/05/31 00:16:23;;;;;;;;;;;;;;;23.21;57.95;98597.53;2086107;28;19970;-45
2023/05/31 00:17:25;;;;;;;;;;;;;;;23.21;58.27;98597.53;2087631;28;20367;-46
2023/05/31 00:18:27;;;;;;;;;;;;;;;23.23;58.13;98595.41;2088896;28;20015;-46
2023/05/31 00:19:28;;;;;;;;;;;;;;;23.21;57.87;98600.25;2087364;28;19924;-45
2023/05/31 00:20:28;;;;;;;;;;;;;;;23.23;58.06;98600.81;2087194;28;20018;-46
2023/05/31 00:21:30;;;;;;;;;;;;;;;23.24;57.87;98605.19;2085022;28;19924;-47
2023/05/31 00:22:30;;;;;;;;;;;;;;;23.22;57.93;98593.78;2072097;28;20052;-46
2023/05/31 00:23:32;;;;;;;;;;;;;;;23.23;57.94;98594.59;2082650;28;20441;-46
2023/05/31 00:24:32;;;;;;;;;;;;;;;23.21;58.02;98602.97;2079551;28;20386;-47
2023/05/31 00:25:34;;;;;;;;;;;;;;;23.20;57.94;98602.09;2087019;28;19924;-48
2023/05/31 00:26:34;;;;;;;;;;;;;;;23.21;58.00;98602.97;2082025;28;19946;-46
2023/05/31 00:27:36;;;;;;;;;;;;;;;23.20;58.05;98599.41;2087550;28;19924;-47
2023/05/31 00:28:36;;;;;;;;;;;;;;;23.20;58.01;98609.41;2091228;28;19955;-47
2023/05/31 00:29:38;;;;;;;;;;;;;;;23.22;57.92;98603.78;2086656;28;19955;-45
2023/05/31 00:30:38;;;;;;;;;;;;;;;23.21;57.74;98608.38;2088236;28;19967;-47
2023/05/31 00:31:41;;;;;;;;;;;;;;;23.21;57.93;98605.66;2085677;28;20692;-48
2023/05/31 00:32:42;;;;;;;;;;;;;;;23.22;57.95;98609.19;2089022;28;19929;-46
2023/05/31 00:33:45;;;;;;;;;;;;;;;23.19;58.11;98605.88;2086993;28;19970;-47
2023/05/31 00:34:45;;;;;;;;;;;;;;;23.19;57.96;98613.19;2088813;28;19981;-47
2023/05/31 00:35:47;;;;;;;;;;;;;;;23.19;58.04;98611.31;2083966;28;19928;-47
2023/05/31 00:36:47;;;;;;;;;;;;;;;23.20;58.02;98612.13;2087244;28;21292;-48
2023/05/31 00:37:49;;;;;;;;;;;;;;;23.20;58.15;98614.81;2087342;28;19928;-46
2023/05/31 00:38:49;;;;;;;;;;;;;;;23.19;58.12;98613.19;2085721;28;20827;-46
2023/05/31 00:39:51;;;;;;;;;;;;;;;23.19;58.14;98610.47;2086171;28;19994;-46
2023/05/31 00:40:51;;;;;;;;;;;;;;;23.18;58.17;98612.38;2085804;28;20348;-47
2023/05/31 00:41:53;;;;;;;;;;;;;;;23.17;58.21;98612.59;2086500;28;19924;-50
2023/05/31 00:42:53;;;;;;;;;;;;;;;23.17;58.13;98612.59;2078777;28;19924;-47
2023/05/31 00:43:55;;;;;;;;;;;;;;;23.17;58.35;98612.59;2087124;28;19925;-45
2023/05/31 00:44:55;;;;;;;;;;;;;;;23.19;58.29;98605.06;2087035;28;20010;-47
2023/05/31 00:45:57;;;;;;;;;;;;;;;23.19;58.08;98618.59;2088306;28;19986;-46
2023/05/31 00:46:57;;;;;;;;;;;;;;;23.17;58.10;98618.00;2087849;28;20043;-46
2023/05/31 00:48:00;;;;;;;;;;;;;;;23.18;58.29;98608.84;2085580;28;20066;-46
2023/05/31 00:49:02;;;;;;;;;;;;;;;23.18;58.12;98616.97;2085198;28;20638;-47
2023/05/31 00:50:04;;;;;;;;;;;;;;;23.17;58.20;98615.28;2087982;28;19932;-46
2023/05/31 00:51:05;;;;;;;;;;;;;;;23.18;58.03;98614.25;2086982;28;19924;-48
2023/05/31 00:52:07;;;;;;;;;;;;;;;23.18;58.09;98619.66;2085218;28;19924;-46
2023/05/31 00:53:07;;;;;;;;;;;;;;;23.18;58.22;98619.66;2086729;28;20055;-47
2023/05/31 00:54:10;;;;;;;;;;;;;;;23.17;58.28;98618.00;2084243;28;19935;-47
2023/05/31 00:55:10;;;;;;;;;;;;;;;23.16;58.24;98619.06;2088609;28;19987;-47
2023/05/31 00:56:13;;;;;;;;;;;;;;;23.17;58.05;98621.53;2089871;28;19925;-47
2023/05/31 00:57:15;;;;;;;;;;;;;;;23.17;58.18;98618.00;2084133;28;19925;-47
2023/05/31 00:58:16;;;;;;;;;;;;;;;23.17;58.19;98615.28;2087778;28;20015;-49
2023/05/31 00:59:17;;;;;;;;;;;;;;;23.16;58.21;98611.78;2087545;28;19924;-46
2023/05/31 01:00:18;;;;;;;;;;;;;;;23.16;58.22;98613.66;2086477;28;19928;-48
2023/05/31 01:01:21;;;;;;;;;;;;;;;23.15;58.04;98612.84;2089861;28;19951;-46
2023/05/31 01:02:22;;;;;;;;;;;;;;;23.16;58.21;98616.38;2077413;28;19932;-47
2023/05/31 01:03:24;;;;;;;;;;;;;;;23.15;58.17;98618.25;2087384;28;19930;-46
2023/05/31 01:04:26;;;;;;;;;;;;;;;23.15;58.29;98614.69;2084221;28;20608;-48
2023/05/31 01:05:27;;;;;;;;;;;;;;;23.15;58.35;98612.00;2084677;28;19981;-47
2023/05/31 01:06:31;;;;;;;;;;;;;;;23.16;58.14;98600.13;2087381;28;20506;-46
2023/05/31 01:07:33;;;;;;;;;;;;;;;23.15;58.09;98603.88;2086600;28;20452;-47
2023/05/31 01:08:34;;;;;;;;;;;;;;;23.14;58.31;98611.16;2086251;28;19928;-45
2023/05/31 01:09:42;;;;;;;;;;;;;;;23.15;58.19;98609.28;2088549;28;19928;-47
2023/05/31 01:10:43;;;;;;;;;;;;;;;23.13;58.40;98604.13;2087182;28;19921;-47
2023/05/31 01:11:54;;;;;;;;;;;;;;;23.13;58.34;98611.41;2087056;28;19924;-47
2023/05/31 01:12:59;;;;;;;;;;;;;;;23.13;58.14;98606.81;2085272;28;19967;-47
2023/05/31 01:14:06;;;;;;;;;;;;;;;23.14;58.23;98611.16;2085908;28;19963;-47
2023/05/31 01:15:10;;;;;;;;;;;;;;;23.14;58.29;98607.66;2086283;28;20483;-47
2023/05/31 01:16:13;;;;;;;;;;;;;;;23.13;58.10;98612.25;2088182;28;20638;-45
2023/05/31 01:17:22;;;;;;;;;;;;;;;23.13;58.15;98617.66;2085520;28;19989;-46
2023/05/31 01:18:32;;;;;;;;;;;;;;;23.13;58.23;98606.00;2088295;28;19925;-46
2023/05/31 01:19:47;;;;;;;;;;;;;;;23.13;58.29;98606.00;2088880;28;19921;-46
2023/05/31 01:20:50;;;;;;;;;;;;;;;23.12;58.41;98604.34;2081009;28;19974;-45
2023/05/31 01:21:57;;;;;;;;;;;;;;;23.13;58.34;98609.53;2077877;28;19928;-46
2023/05/31 01:23:06;;;;;;;;;;;;;;;23.13;58.30;98600.59;2087615;28;19927;-46
2023/05/31 01:24:13;;;;;;;;;;;;;;;23.12;58.17;98604.34;2084415;28;20690;-46
2023/05/31 01:25:27;;;;;;;;;;;;;;;23.12;58.29;98604.34;2087141;28;19936;-46
2023/05/31 01:26:32;;;;;;;;;;;;;;;23.12;58.17;98599.78;2082624;28;19990;-46
2023/05/31 01:27:34;;;;;;;;;;;;;;;23.13;58.30;98609.53;2086703;28;19945;-48
2023/05/31 01:28:36;;;;;;;;;;;;;;;23.13;58.17;98606.81;2086169;28;20609;-46
2023/05/31 01:29:39;;;;;;;;;;;;;;;23.12;58.18;98602.47;2087760;28;20387;-46
2023/05/31 01:30:40;;;;;;;;;;;;;;;23.12;58.39;98599.78;2085355;28;20707;-46
2023/05/31 01:31:42;;;;;;;;;;;;;;;23.12;58.31;98598.94;2086901;28;19929;-46
2023/05/31 01:32:44;;;;;;;;;;;;;;;23.11;58.20;98603.53;2085705;28;19974;-46
2023/05/31 01:33:46;;;;;;;;;;;;;;;23.11;58.24;98605.41;2088960;28;19928;-47
2023/05/31 01:34:48;;;;;;;;;;;;;;;23.11;58.17;98608.13;2089634;28;19930;-49
2023/05/31 01:35:50;;;;;;;;;;;;;;;23.10;58.27;98603.78;2083856;28;20521;-45
2023/05/31 01:36:51;;;;;;;;;;;;;;;23.11;58.17;98602.72;2086944;28;20396;-46
2023/05/31 01:37:52;;;;;;;;;;;;;;;23.11;58.23;98597.28;2079931;28;19932;-47
2023/05/31 01:38:53;;;;;;;;;;;;;;;23.11;58.31;98600.81;2084071;28;19924;-47
2023/05/31 01:39:54;;;;;;;;;;;;;;;23.11;58.31;98600.81;2086476;28;20343;-47
2023/05/31 01:40:56;;;;;;;;;;;;;;;23.09;58.29;98597.50;2089591;28;20635;-46
2023/05/31 01:42:00;;;;;;;;;;;;;;;23.11;58.27;98602.72;2089084;28;19978;-51
2023/05/31 01:43:02;;;;;;;;;;;;;;;23.10;58.32;98598.38;2085543;28;20717;-47
2023/05/31 01:44:04;;;;;;;;;;;;;;;23.10;58.29;98598.38;2088175;28;19920;-46
2023/05/31 01:45:05;;;;;;;;;;;;;;;23.10;58.19;98598.38;2086049;28;19934;-49
2023/05/31 01:46:07;;;;;;;;;;;;;;;23.09;58.13;98594.00;2087280;28;19928;-46
2023/05/31 01:47:08;;;;;;;;;;;;;;;23.10;58.26;98596.47;2085753;28;20026;-48
2023/05/31 01:48:11;;;;;;;;;;;;;;;23.10;58.34;98590.25;2087020;28;19974;-46
2023/05/31 01:49:11;;;;;;;;;;;;;;;23.09;58.23;98594.00;2085651;28;19928;-46
2023/05/31 01:50:14;;;;;;;;;;;;;;;23.10;58.38;98590.25;2087116;28;19935;-46
2023/05/31 01:51:15;;;;;;;;;;;;;;;23.09;58.36;98585.88;2086251;28;20069;-47
2023/05/31 01:52:18;;;;;;;;;;;;;;;23.09;58.46;98594.00;2086079;28;19925;-46
2023/05/31 01:53:18;;;;;;;;;;;;;;;23.11;58.18;98600.00;2086468;28;19928;-46
2023/05/31 01:54:20;;;;;;;;;;;;;;;23.08;58.14;98586.94;2081380;28;20354;-46
2023/05/31 01:55:20;;;;;;;;;;;;;;;23.08;58.21;98590.47;2085194;28;19983;-45
2023/05/31 01:56:23;;;;;;;;;;;;;;;23.09;58.22;98588.59;2086426;28;20357;-46
2023/05/31 01:57:25;;;;;;;;;;;;;;;23.07;58.11;98586.13;2085130;28;19963;-47
2023/05/31 01:58:28;;;;;;;;;;;;;;;23.10;58.20;98584.84;2087044;28;19924;-46
2023/05/31 01:59:30;;;;;;;;;;;;;;;23.09;58.27;98592.09;2085698;28;20062;-46
2023/05/31 02:00:32;;;;;;;;;;;;;;;23.09;58.21;98589.41;2087533;28;20315;-45
2023/05/31 02:01:32;;;;;;;;;;;;;;;23.10;58.14;98590.25;2084964;28;19942;-46
2023/05/31 02:02:34;;;;;;;;;;;;;;;23.10;58.09;98587.53;2087749;28;19947;-47
2023/05/31 02:03:35;;;;;;;;;;;;;;;23.10;58.13;98588.38;2086818;28;19943;-47
2023/05/31 02:04:36;;;;;;;;;;;;;;;23.10;58.19;98591.06;2087831;28;19927;-47
2023/05/31 02:05:37;;;;;;;;;;;;;;;23.09;58.20;98597.50;2083696;28;19944;-46
2023/05/31 02:06:38;;;;;;;;;;;;;;;23.09;58.13;98589.41;2087118;28;19927;-47
2023/05/31 02:07:39;;;;;;;;;;;;;;;23.09;58.29;98596.69;2085769;28;19932;-47
2023/05/31 02:08:41;;;;;;;;;;;;;;;23.07;57.90;98591.53;2084895;28;19925;-45
2023/05/31 02:09:41;;;;;;;;;;;;;;;23.08;58.10;98597.75;2085224;28;19932;-45
2023/05/31 02:10:43;;;;;;;;;;;;;;;23.08;58.18;98595.06;2088022;28;19966;-47
2023/05/31 02:11:43;;;;;;;;;;;;;;;23.09;58.08;98594.00;2079082;28;20055;-48
2023/05/31 02:12:47;;;;;;;;;;;;;;;23.09;58.10;98594.00;2087333;28;20310;-47
2023/05/31 02:13:48;;;;;;;;;;;;;;;23.09;58.04;98594.00;2084235;28;19925;-48
2023/05/31 02:14:49;;;;;;;;;;;;;;;23.08;58.07;98587.75;2084938;28;19928;-46
2023/05/31 02:15:49;;;;;;;;;;;;;;;23.08;58.19;98590.47;2087203;28;19942;-48
2023/05/31 02:16:51;;;;;;;;;;;;;;;23.10;58.17;98587.53;2084719;28;20204;-45
2023/05/31 02:17:51;;;;;;;;;;;;;;;23.09;58.04;98588.59;2084890;28;19920;-56
2023/05/31 02:18:53;;;;;;;;;;;;;;;23.07;58.16;98596.94;2087314;28;20282;-50
2023/05/31 02:19:53;;;;;;;;;;;;;;;23.08;58.20;98595.06;2087044;28;19920;-47
2023/05/31 02:20:55;;;;;;;;;;;;;;;23.07;58.29;98591.53;2087547;28;19924;-46
2023/05/31 02:21:55;;;;;;;;;;;;;;;23.06;58.13;98591.75;2086546;28;20014;-46
2023/05/31 02:22:57;;;;;;;;;;;;;;;23.08;58.17;98595.88;2084579;28;19928;-45
2023/05/31 02:23:58;;;;;;;;;;;;;;;23.09;57.89;98594.00;2086049;28;19962;-46
2023/05/31 02:24:59;;;;;;;;;;;;;;;23.08;58.21;98592.34;2086837;28;20307;-47
2023/05/31 02:26:00;;;;;;;;;;;;;;;23.08;58.27;98595.06;2087337;28;19921;-45
2023/05/31 02:27:01;;;;;;;;;;;;;;;23.07;58.17;98596.94;2087463;28;19928;-46
2023/05/31 02:28:03;;;;;;;;;;;;;;;23.07;58.20;98596.94;2087068;28;19920;-45
2023/05/31 02:29:04;;;;;;;;;;;;;;;23.08;58.13;98595.06;2077767;28;19928;-46
2023/05/31 02:30:06;;;;;;;;;;;;;;;23.08;58.15;98597.75;2085889;28;19921;-47
2023/05/31 02:31:07;;;;;;;;;;;;;;;23.08;58.21;98600.47;2086002;28;19928;-48
2023/05/31 02:32:08;;;;;;;;;;;;;;;23.07;58.20;98596.13;2085397;28;20013;-46
2023/05/31 02:33:09;;;;;;;;;;;;;;;23.06;58.07;98589.88;2085478;28;19998;-46
2023/05/31 02:34:10;;;;;;;;;;;;;;;23.07;58.31;98596.13;2085549;28;19924;-47
2023/05/31 02:35:12;;;;;;;;;;;;;;;23.06;58.31;98599.88;2084744;28;20023;-47
2023/05/31 02:36:12;;;;;;;;;;;;;;;23.05;58.30;98593.66;2087654;28;20482;-47
2023/05/31 02:37:14;;;;;;;;;;;;;;;23.06;58.28;98602.56;2083959;28;19996;-48
2023/05/31 02:38:14;;;;;;;;;;;;;;;23.06;58.18;98594.47;2084969;28;19974;-47
2023/05/31 02:39:16;;;;;;;;;;;;;;;23.05;58.20;98590.94;2086150;28;19934;-48
2023/05/31 02:40:16;;;;;;;;;;;;;;;23.06;58.13;98594.47;2085020;28;19971;-46
2023/05/31 02:41:18;;;;;;;;;;;;;;;23.04;58.11;98592.00;2086786;28;20757;-44
2023/05/31 02:42:18;;;;;;;;;;;;;;;23.04;58.24;98591.16;2086276;28;20402;-45
2023/05/31 02:43:21;;;;;;;;;;;;;;;23.04;58.24;98591.16;2086277;28;19925;-46
2023/05/31 02:44:22;;;;;;;;;;;;;;;23.05;58.24;98592.81;2088990;28;19932;-47
2023/05/31 02:45:23;;;;;;;;;;;;;;;23.04;58.16;98591.16;2085209;28;19920;-47
2023/05/31 02:46:23;;;;;;;;;;;;;;;23.04;58.17;98588.44;2087176;28;19960;-46
2023/05/31 02:47:25;;;;;;;;;;;;;;;23.04;58.23;98588.44;2079012;28;21166;-46
2023/05/31 02:48:25;;;;;;;;;;;;;;;23.04;58.23;98585.75;2085451;28;19978;-46
2023/05/31 02:49:27;;;;;;;;;;;;;;;23.03;58.11;98584.13;2086760;28;19969;-45
2023/05/31 02:50:27;;;;;;;;;;;;;;;23.03;58.26;98589.53;2088905;28;20023;-46
2023/05/31 02:51:29;;;;;;;;;;;;;;;23.04;58.22;98585.75;2088412;28;19929;-48
2023/05/31 02:52:30;;;;;;;;;;;;;;;23.04;58.14;98585.75;2089681;28;19979;-47
2023/05/31 02:53:31;;;;;;;;;;;;;;;23.03;58.08;98584.94;2087317;28;20030;-47
2023/05/31 02:54:32;;;;;;;;;;;;;;;23.03;58.19;98582.22;2087319;28;19924;-45
2023/05/31 02:55:33;;;;;;;;;;;;;;;23.02;58.33;98585.19;2086163;28;19921;-47
2023/05/31 02:56:34;;;;;;;;;;;;;;;23.03;58.31;98587.63;2085889;28;19971;-47
2023/05/31 02:57:36;;;;;;;;;;;;;;;23.03;58.29;98587.63;2086974;28;19927;-46
2023/05/31 02:58:37;;;;;;;;;;;;;;;23.02;58.25;98583.28;2089370;28;19963;-48
2023/05/31 02:59:39;;;;;;;;;;;;;;;23.03;58.09;98579.53;2085927;28;20047;-47
2023/05/31 03:00:40;;;;;;;;;;;;;;;23.04;58.33;98585.75;2089161;28;19997;-46
2023/05/31 03:01:41;;;;;;;;;;;;;;;23.02;58.03;98579.78;2089202;28;20021;-47
2023/05/31 03:02:42;;;;;;;;;;;;;;;23.02;58.34;98583.28;2089237;28;19958;-48
2023/05/31 03:03:43;;;;;;;;;;;;;;;23.02;58.39;98582.47;2086431;28;20536;-47
2023/05/31 03:04:44;;;;;;;;;;;;;;;23.02;58.25;98577.06;2082109;28;20027;-45
2023/05/31 03:05:45;;;;;;;;;;;;;;;23.00;58.26;98585.41;2083707;28;19935;-46
2023/05/31 03:06:46;;;;;;;;;;;;;;;22.99;58.07;98583.75;2087176;28;20407;-47
2023/05/31 03:07:48;;;;;;;;;;;;;;;23.01;58.21;98580.81;2088881;28;19924;-48
2023/05/31 03:08:48;;;;;;;;;;;;;;;23.01;58.25;98578.09;2086907;28;19929;-48
2023/05/31 03:09:50;;;;;;;;;;;;;;;23.01;58.37;98580.81;2087024;28;19928;-46
2023/05/31 03:10:50;;;;;;;;;;;;;;;23.01;58.18;98572.69;2087745;28;20787;-46
2023/05/31 03:11:52;;;;;;;;;;;;;;;22.99;58.35;98577.53;2085697;28;19925;-46
2023/05/31 03:12:52;;;;;;;;;;;;;;;23.00;58.32;98580.00;2085596;28;19967;-45
2023/05/31 03:13:55;;;;;;;;;;;;;;;22.99;58.28;98580.25;2085785;28;20433;-46
2023/05/31 03:14:55;;;;;;;;;;;;;;;22.99;58.44;98580.25;2087097;28;19924;-47
2023/05/31 03:15:57;;;;;;;;;;;;;;;23.00;58.33;98576.47;2086873;28;20378;-47
2023/05/31 03:16:58;;;;;;;;;;;;;;;22.99;58.22;98574.84;2087428;28;20011;-47
2023/05/31 03:18:00;;;;;;;;;;;;;;;22.99;58.28;98572.13;2085299;28;19929;-45
2023/05/31 03:19:00;;;;;;;;;;;;;;;23.01;58.26;98575.41;2085233;28;19986;-47
2023/05/31 03:20:03;;;;;;;;;;;;;;;23.00;58.35;98565.66;2083375;28;19946;-44
2023/05/31 03:21:04;;;;;;;;;;;;;;;22.99;58.16;98566.72;2086582;28;20061;-46
2023/05/31 03:22:05;;;;;;;;;;;;;;;23.00;58.29;98573.75;2087701;28;19920;-47
2023/05/31 03:23:06;;;;;;;;;;;;;;;22.97;58.31;98570.47;2078038;28;19993;-47
2023/05/31 03:24:08;;;;;;;;;;;;;;;22.98;58.09;98571.28;2085621;28;19978;-47
2023/05/31 03:25:08;;;;;;;;;;;;;;;22.97;58.23;98572.34;2087149;28;19970;-47
2023/05/31 03:26:10;;;;;;;;;;;;;;;22.98;58.32;98571.28;2086878;28;20190;-47
2023/05/31 03:27:10;;;;;;;;;;;;;;;22.97;58.25;98570.47;2085113;28;20267;-46
2023/05/31 03:28:12;;;;;;;;;;;;;;;22.97;58.28;98575.06;2086493;28;20020;-46
2023/05/31 03:29:14;;;;;;;;;;;;;;;22.97;58.38;98569.63;2088962;28;19964;-46
2023/05/31 03:30:15;;;;;;;;;;;;;;;23.01;58.22;98572.69;2087890;28;19929;-47
2023/05/31 03:31:17;;;;;;;;;;;;;;;22.97;58.25;98570.47;2086405;28;19924;-46
2023/05/31 03:32:18;;;;;;;;;;;;;;;22.97;58.22;98575.88;2087422;28;19946;-50
2023/05/31 03:33:19;;;;;;;;;;;;;;;22.99;58.52;98577.53;2084889;28;20404;-46
2023/05/31 03:34:21;;;;;;;;;;;;;;;22.96;58.16;98571.53;2088089;28;19969;-45
2023/05/31 03:35:21;;;;;;;;;;;;;;;22.97;58.23;98578.56;2084917;28;19928;-46
2023/05/31 03:36:23;;;;;;;;;;;;;;;22.97;58.14;98573.16;2083169;28;20045;-47
2023/05/31 03:37:23;;;;;;;;;;;;;;;22.98;58.20;98579.41;2087502;28;20589;-46
2023/05/31 03:38:25;;;;;;;;;;;;;;;22.96;58.12;98582.34;2085595;28;19920;-48
2023/05/31 03:39:25;;;;;;;;;;;;;;;22.96;58.23;98579.66;2085514;28;20020;-46
2023/05/31 03:40:27;;;;;;;;;;;;;;;22.98;58.30;98579.41;2089062;28;19931;-46
2023/05/31 03:41:27;;;;;;;;;;;;;;;23.00;58.10;98584.59;2076919;28;19977;-48
2023/05/31 03:42:31;;;;;;;;;;;;;;;22.98;58.22;98582.09;2090694;28;19982;-46
2023/05/31 03:43:31;;;;;;;;;;;;;;;22.97;58.21;98581.28;2087113;28;19924;-47
2023/05/31 03:44:34;;;;;;;;;;;;;;;23.00;58.34;98598.09;2088138;28;19924;-46
2023/05/31 03:45:35;;;;;;;;;;;;;;;22.97;58.31;98593.97;2085847;28;19925;-46
2023/05/31 03:46:36;;;;;;;;;;;;;;;22.96;58.30;98595.06;2086923;28;20366;-46
2023/05/31 03:47:37;;;;;;;;;;;;;;;22.95;58.33;98588.78;2086519;28;20049;-49
2023/05/31 03:48:38;;;;;;;;;;;;;;;22.96;58.17;98593.16;2088988;28;19920;-47
2023/05/31 03:49:39;;;;;;;;;;;;;;;22.96;58.15;98593.16;2086693;28;20012;-46
2023/05/31 03:50:40;;;;;;;;;;;;;;;22.97;58.16;98599.41;2086881;28;19932;-46
2023/05/31 03:51:41;;;;;;;;;;;;;;;22.98;58.17;98598.31;2087998;28;19959;-48
2023/05/31 03:52:42;;;;;;;;;;;;;;;22.96;58.23;98595.88;2086961;28;20992;-47
2023/05/31 03:53:43;;;;;;;;;;;;;;;22.95;58.24;98594.22;2084372;28;19925;-46
2023/05/31 03:54:46;;;;;;;;;;;;;;;22.95;58.10;98599.63;2088598;28;20502;-46
2023/05/31 03:55:47;;;;;;;;;;;;;;;22.95;58.15;98602.31;2084639;28;19928;-45
2023/05/31 03:56:48;;;;;;;;;;;;;;;22.95;58.38;98596.06;2087061;28;20400;-48
2023/05/31 03:57:48;;;;;;;;;;;;;;;22.96;58.23;98606.69;2088779;28;19935;-47
2023/05/31 03:58:50;;;;;;;;;;;;;;;22.95;58.26;98599.63;2086552;28;19924;-45
2023/05/31 03:59:53;;;;;;;;;;;;;;;22.95;58.34;98601.47;2075767;28;20022;-47
2023/05/31 04:00:54;;;;;;;;;;;;;;;22.95;58.31;98609.59;2086755;28;19924;-46
2023/05/31 04:01:56;;;;;;;;;;;;;;;22.95;58.30;98599.63;2086831;28;19924;-48
2023/05/31 04:02:56;;;;;;;;;;;;;;;22.93;58.33;98601.72;2088131;28;20015;-47
2023/05/31 04:03:58;;;;;;;;;;;;;;;22.94;58.26;98595.25;2089420;28;19924;-48
2023/05/31 04:04:59;;;;;;;;;;;;;;;22.93;58.24;98596.31;2088064;28;19977;-48
2023/05/31 04:06:00;;;;;;;;;;;;;;;22.94;58.25;98595.25;2088632;28;20019;-46
2023/05/31 04:07:01;;;;;;;;;;;;;;;22.94;58.35;98594.41;2087845;28;20563;-46
2023/05/31 04:08:02;;;;;;;;;;;;;;;22.94;58.26;98595.25;2087921;28;19924;-46
2023/05/31 04:09:04;;;;;;;;;;;;;;;22.93;58.17;98599.00;2086642;28;19924;-47
2023/05/31 04:10:05;;;;;;;;;;;;;;;22.95;58.32;98596.91;2087106;28;20031;-48
2023/05/31 04:11:06;;;;;;;;;;;;;;;22.94;58.19;98600.66;2086558;28;19920;-48
2023/05/31 04:12:07;;;;;;;;;;;;;;;22.95;58.16;98602.31;2087919;28;20593;-47
2023/05/31 04:13:08;;;;;;;;;;;;;;;22.95;58.24;98594.22;2085455;28;19982;-47
2023/05/31 04:14:09;;;;;;;;;;;;;;;22.95;58.27;98605.03;2086340;28;19935;-46
2023/05/31 04:15:12;;;;;;;;;;;;;;;22.96;58.32;98603.97;2088121;28;20590;-48
2023/05/31 04:16:13;;;;;;;;;;;;;;;22.94;58.23;98597.94;2088280;28;19979;-46
2023/05/31 04:17:14;;;;;;;;;;;;;;;22.93;58.40;98601.72;2086863;28;19936;-49
2023/05/31 04:18:15;;;;;;;;;;;;;;;22.92;58.28;98597.34;2088044;28;19932;-46
2023/05/31 04:19:16;;;;;;;;;;;;;;;22.94;58.14;98603.34;2091666;28;19934;-47
2023/05/31 04:20:18;;;;;;;;;;;;;;;22.94;58.15;98597.13;2079026;28;19928;-46
2023/05/31 04:21:20;;;;;;;;;;;;;;;22.94;58.40;98595.25;2086214;28;19969;-46
2023/05/31 04:22:22;;;;;;;;;;;;;;;22.96;58.17;98606.69;2088114;28;19920;-46
2023/05/31 04:23:23;;;;;;;;;;;;;;;22.96;58.15;98600.47;2089713;28;19921;-47
2023/05/31 04:24:24;;;;;;;;;;;;;;;22.95;58.39;98604.16;2087717;28;19951;-47
2023/05/31 04:25:27;;;;;;;;;;;;;;;22.94;58.28;98603.34;2089854;28;20462;-45
2023/05/31 04:26:28;;;;;;;;;;;;;;;22.94;58.10;98608.75;2086332;28;19932;-48
2023/05/31 04:27:32;;;;;;;;;;;;;;;22.95;58.06;98610.44;2089245;28;19940;-47
2023/05/31 04:28:32;;;;;;;;;;;;;;;22.94;58.19;98608.75;2091260;28;20042;-47
2023/05/31 04:29:34;;;;;;;;;;;;;;;22.96;58.20;98614.81;2089285;28;19931;-45
2023/05/31 04:30:35;;;;;;;;;;;;;;;22.96;58.14;98608.56;2088501;28;20001;-45
2023/05/31 04:31:37;;;;;;;;;;;;;;;22.95;58.03;98613.13;2089666;28;19952;-46
2023/05/31 04:32:38;;;;;;;;;;;;;;;22.94;58.21;98607.94;2090703;28;19951;-46
2023/05/31 04:33:41;;;;;;;;;;;;;;;22.94;58.27;98611.47;2083842;28;19925;-46
2023/05/31 04:34:42;;;;;;;;;;;;;;;22.95;58.30;98607.72;2088380;28;19924;-46
2023/05/31 04:35:44;;;;;;;;;;;;;;;22.93;58.07;98609.00;2087584;28;19928;-45
2023/05/31 04:36:48;;;;;;;;;;;;;;;22.96;58.23;98614.81;2086013;28;19989;-46
2023/05/31 04:37:52;;;;;;;;;;;;;;;22.93;58.18;98612.53;2087954;28;20156;-46
2023/05/31 04:38:55;;;;;;;;;;;;;;;22.94;58.25;98613.34;2079176;28;20005;-45
2023/05/31 04:39:57;;;;;;;;;;;;;;;22.94;58.07;98610.66;2086871;28;19955;-45
2023/05/31 04:40:57;;;;;;;;;;;;;;;22.96;58.16;98614.00;2087054;28;20047;-47
2023/05/31 04:42:00;;;;;;;;;;;;;;;22.93;58.21;98615.25;2088172;28;19924;-45
2023/05/31 04:43:00;;;;;;;;;;;;;;;22.94;58.21;98618.75;2086537;28;20679;-47
2023/05/31 04:44:02;;;;;;;;;;;;;;;22.94;58.10;98616.88;2087558;28;20027;-47
2023/05/31 04:45:04;;;;;;;;;;;;;;;22.91;58.27;98611.94;2084654;28;19991;-45
2023/05/31 04:46:09;;;;;;;;;;;;;;;22.93;58.23;98617.94;2087901;28;19928;-47
2023/05/31 04:47:09;;;;;;;;;;;;;;;22.91;58.27;98611.94;2084914;28;19932;-48
2023/05/31 04:48:11;;;;;;;;;;;;;;;22.94;58.33;98624.16;2084989;28;19924;-45
2023/05/31 04:49:12;;;;;;;;;;;;;;;22.92;58.28;98615.47;2087473;28;19951;-46
2023/05/31 04:50:14;;;;;;;;;;;;;;;22.92;58.18;98623.56;2086384;28;19935;-47
2023/05/31 04:51:14;;;;;;;;;;;;;;;22.91;58.20;98620.06;2088386;28;20418;-47
2023/05/31 04:52:16;;;;;;;;;;;;;;;22.90;58.27;98623.81;2086285;28;19973;-48
2023/05/31 04:53:16;;;;;;;;;;;;;;;22.92;58.25;98623.56;2087464;28;19958;-47
2023/05/31 04:54:18;;;;;;;;;;;;;;;22.91;58.15;98620.06;2087046;28;19963;-46
2023/05/31 04:55:18;;;;;;;;;;;;;;;22.91;58.13;98617.34;2067439;28;19928;-45
2023/05/31 04:56:21;;;;;;;;;;;;;;;22.91;58.20;98630.88;2083289;28;20014;-46
2023/05/31 04:57:22;;;;;;;;;;;;;;;22.91;58.17;98627.34;2086752;28;19980;-48
2023/05/31 04:58:23;;;;;;;;;;;;;;;22.90;58.23;98620.28;2084577;28;19975;-47
2023/05/31 04:59:23;;;;;;;;;;;;;;;22.90;58.29;98622.97;2086772;28;19921;-46
2023/05/31 05:00:25;;;;;;;;;;;;;;;22.90;58.14;98620.28;2086071;28;19927;-46
2023/05/31 05:01:27;;;;;;;;;;;;;;;22.89;58.40;98622.16;2083791;28;19924;-46
2023/05/31 05:02:29;;;;;;;;;;;;;;;22.90;58.21;98626.53;2085457;28;19920;-46
2023/05/31 05:03:29;;;;;;;;;;;;;;;22.89;58.39;98616.75;2086425;28;19924;-47
2023/05/31 05:04:31;;;;;;;;;;;;;;;22.90;58.20;98625.69;2088750;28;20575;-45
2023/05/31 05:05:31;;;;;;;;;;;;;;;22.89;58.25;98624.84;2087702;28;19924;-47
2023/05/31 05:06:33;;;;;;;;;;;;;;;22.89;58.38;98627.56;2085107;28;19924;-45
2023/05/31 05:07:34;;;;;;;;;;;;;;;22.89;58.25;98624.03;2085241;28;19921;-49
2023/05/31 05:08:36;;;;;;;;;;;;;;;22.89;58.30;98629.44;2084400;28;19929;-47
2023/05/31 05:09:36;;;;;;;;;;;;;;;22.89;58.23;98632.97;2086950;28;19924;-47
2023/05/31 05:10:38;;;;;;;;;;;;;;;22.88;58.13;98625.94;2084237;28;19925;-46
2023/05/31 05:11:39;;;;;;;;;;;;;;;22.89;58.19;98626.75;2086983;28;19956;-47
2023/05/31 05:12:40;;;;;;;;;;;;;;;22.89;58.17;98626.75;2080523;28;19928;-48
2023/05/31 05:13:41;;;;;;;;;;;;;;;22.90;58.12;98637.34;2085960;28;19969;-46
2023/05/31 05:14:42;;;;;;;;;;;;;;;22.89;58.16;98635.69;2084246;28;19921;-45
2023/05/31 05:15:43;;;;;;;;;;;;;;;22.89;58.13;98637.56;2080886;28;19965;-46
2023/05/31 05:16:45;;;;;;;;;;;;;;;22.89;58.21;98634.84;2087267;28;19970;-46
2023/05/31 05:17:46;;;;;;;;;;;;;;;22.88;58.20;98639.44;2088472;28;19921;-48
2023/05/31 05:18:47;;;;;;;;;;;;;;;22.88;58.28;98638.63;2085029;28;19920;-47
2023/05/31 05:19:48;;;;;;;;;;;;;;;22.87;58.27;98635.09;2086853;28;20461;-46
2023/05/31 05:20:49;;;;;;;;;;;;;;;22.88;58.34;98641.34;2088920;28;19936;-50